This is the latest recevied weather packets stored in our database for station/object HP1COO-13. If no packets are shown the sender has not sent any weather packets the latest 10 day(s).
| Time | Temp. | Humidity | Pressure | Rain* | Wind** | Luminosity | Snow |
|---|---|---|---|---|---|---|---|
| 1777850125 | 26.67° C | 91% | 1008.6 hPa | 0 mm | - | - | - |
| 1777849523 | 26.67° C | 90% | 1008.4 hPa | 0 mm | - | - | - |
| 1777841129 | 26.67° C | 90% | 1008.5 hPa | 0 mm | - | - | - |
| 1777838720 | 26.11° C | 91% | 1008.4 hPa | 0 mm | - | - | - |
| 1777827355 | 30.56° C | 74% | 1010.8 hPa | 0 mm | - | - | - |
| 1777823118 | 30.56° C | 75% | 1011.2 hPa | 0 mm | - | - | - |
| 1777821934 | 31.11° C | 74% | 1011.4 hPa | 0 mm | - | - | - |
| 1777821331 | 31.11° C | 74% | 1011.3 hPa | 0 mm | - | - | - |
| 1777819524 | 30.56° C | 75% | 1011.3 hPa | 0 mm | - | - | - |
| 1777773639 | 23.33° C | 99% | 1010.2 hPa | 0 mm | - | - | - |
| 1777771831 | 23.33° C | 99% | 1010.2 hPa | 0 mm | - | - | - |
| 1777768822 | 23.33° C | 99% | 1009.7 hPa | 0.25 mm | - | - | - |
| 1777767618 | 23.89° C | 99% | 1009.7 hPa | 0.51 mm | - | - | - |
| 1777752625 | 25° C | 95% | 1008.8 hPa | 13.97 mm | - | - | - |
| 1777747546 | 28.33° C | 90% | 1008 hPa | 2.79 mm | - | - | - |
| 1777727424 | 26.67° C | 94% | 1008.7 hPa | 0 mm | - | - | - |
| 1777726821 | 26.67° C | 94% | 1008.7 hPa | 0 mm | - | - | - |
| 1777722042 | 26.11° C | 95% | 1007.3 hPa | 0 mm | - | - | - |
| 1777720817 | 26.11° C | 96% | 1007.4 hPa | 0 mm | - | - | - |
| 1777718429 | 26.11° C | 95% | 1007.1 hPa | 0 mm | - | - | - |
| 1777716621 | 26.11° C | 96% | 1006.9 hPa | 0 mm | - | - | - |
| 1777711219 | 26.11° C | 96% | 1006.1 hPa | 0 mm | - | - | - |
| 1777710617 | 26.11° C | 95% | 1005.8 hPa | 0 mm | - | - | - |
| 1777708830 | 26.11° C | 94% | 1006.6 hPa | 0 mm | - | - | - |
| 1777708228 | 26.11° C | 95% | 1006.6 hPa | 0 mm | - | - | - |
* Rain latest hour (hover to see other rain measurements)
** Current wind speed in m/s (hover to see current wind gust speed)